createdAt,value
2023-05-05T02:34:24.674Z,10.00
2023-05-05T02:36:58.251Z,10.60
2023-05-05T02:39:36.104Z,10.70
2023-05-05T02:42:07.152Z,10.77
2023-05-05T02:44:35.577Z,11.30
2023-05-05T05:07:28.198Z,12.73
2023-05-05T05:09:55.392Z,13.38
2023-05-05T05:12:22.544Z,13.75
2023-05-05T05:14:49.594Z,13.05
2023-05-05T05:17:16.678Z,14.30
2023-05-05T05:19:43.771Z,15.10
2023-05-05T05:22:10.842Z,15.25
2023-05-05T05:24:37.923Z,14.82
2023-05-05T05:27:10.031Z,15.13
2023-05-05T05:29:37.459Z,14.70
2023-05-05T05:32:04.828Z,15.10
2023-05-05T05:34:31.935Z,15.32
2023-05-05T05:36:59.047Z,14.43
2023-05-05T05:39:26.355Z,14.63
2023-05-05T05:41:53.622Z,14.70
2023-05-05T05:44:20.754Z,13.77
2023-05-05T05:46:47.821Z,13.57
2023-05-05T05:49:16.460Z,14.07
2023-05-05T05:51:43.592Z,14.43
2023-05-05T05:54:10.664Z,13.93
2023-05-05T05:56:37.796Z,12.20
2023-05-05T05:59:08.162Z,13.48
2023-05-05T06:01:35.721Z,12.40
2023-05-05T06:04:02.938Z,11.10
2023-05-05T06:06:30.075Z,11.50
2023-05-05T06:08:57.468Z,10.93
2023-05-05T06:11:24.632Z,10.05
2023-05-05T06:13:51.764Z,10.23
2023-05-05T06:16:18.855Z,10.50
2023-05-05T06:18:46.167Z,9.27
2023-05-05T06:21:13.679Z,9.13
2023-05-05T06:23:40.851Z,9.85
2023-05-05T06:26:07.907Z,9.85
2023-05-05T06:28:35.050Z,9.43
2023-05-05T06:31:02.180Z,10.32
2023-05-05T06:33:29.271Z,11.27
2023-05-05T06:35:56.628Z,9.85
2023-05-05T06:38:23.711Z,10.40
2023-05-05T06:40:50.891Z,10.10
2023-05-05T06:43:18.360Z,10.35
2023-05-05T07:30:18.505Z,7.50
2023-05-05T07:32:46.411Z,7.73
2023-05-05T07:35:13.698Z,7.35
2023-05-05T07:37:40.904Z,7.05
2023-05-05T07:40:09.035Z,7.32
2023-05-05T07:42:36.406Z,7.47
2023-05-05T07:45:04.410Z,7.20
2023-05-05T07:47:31.695Z,6.32
2023-05-05T07:49:58.812Z,5.88
2023-05-05T07:52:43.606Z,5.50
2023-05-05T07:55:13.564Z,5.15
2023-05-05T07:57:40.698Z,5.03
2023-05-05T08:00:09.567Z,5.43
2023-05-05T08:02:37.142Z,4.25
2023-05-05T08:05:04.786Z,4.10
2023-05-05T08:07:31.900Z,4.43
2023-05-05T08:09:59.008Z,4.75
2023-05-05T08:12:26.286Z,4.82
2023-05-05T08:14:53.516Z,5.10
2023-05-05T08:17:20.655Z,4.57
2023-05-05T08:19:48.098Z,5.25
2023-05-05T08:22:15.221Z,4.55
2023-05-05T08:24:42.439Z,4.57
2023-05-05T08:27:09.522Z,5.22
2023-05-05T08:29:36.593Z,5.47
2023-05-05T09:03:04.763Z,3.80
2023-05-05T09:05:32.032Z,3.55
2023-05-05T09:07:59.539Z,2.97
2023-05-05T09:10:27.673Z,3.33
2023-05-05T09:12:54.853Z,2.97
2023-05-05T09:15:22.055Z,2.38
2023-05-05T09:17:49.157Z,3.17
2023-05-05T09:20:16.403Z,9.15
2023-05-05T09:22:45.750Z,3.15
2023-05-05T09:25:15.803Z,3.90
2023-05-05T09:27:48.489Z,3.28
2023-05-05T09:30:27.231Z,3.40
2023-05-05T09:32:55.806Z,3.30
2023-05-05T09:35:23.643Z,3.53
2023-05-05T09:37:50.922Z,3.75
2023-05-05T09:40:20.023Z,3.97
2023-05-05T09:42:47.789Z,4.20
2023-05-05T09:45:17.857Z,4.50
2023-05-05T09:47:46.571Z,4.07
2023-05-05T09:50:16.328Z,3.97
2023-05-05T09:52:44.752Z,3.40
2023-05-05T09:55:18.452Z,3.30
2023-05-05T09:57:47.627Z,3.78
2023-05-05T10:00:15.411Z,3.75
2023-05-05T10:02:42.637Z,4.30
2023-05-05T10:05:18.055Z,4.43
2023-05-05T10:07:47.420Z,4.35
2023-05-05T10:10:17.331Z,4.85
2023-05-05T10:12:47.153Z,4.82
2023-05-05T10:15:16.120Z,4.65
2023-05-05T10:20:19.470Z,4.18
2023-05-05T10:22:55.382Z,4.68
2023-05-05T10:25:31.688Z,5.50
2023-05-05T10:28:01.652Z,5.43
2023-05-05T10:30:32.577Z,5.38
2023-05-05T10:35:55.700Z,6.35
2023-05-05T10:38:24.808Z,5.88
2023-05-05T10:40:55.056Z,6.72
2023-05-05T10:43:22.208Z,6.45
2023-05-05T10:45:49.602Z,6.18
2023-05-05T10:48:34.213Z,6.30
2023-05-05T10:51:27.448Z,6.25
2023-05-05T10:54:24.961Z,6.40
2023-05-05T10:56:52.351Z,5.68
2023-05-05T10:59:38.275Z,6.30
2023-05-05T11:02:25.516Z,6.50
2023-05-05T11:05:22.870Z,5.25
2023-05-05T11:07:51.809Z,5.70
2023-05-05T11:10:20.981Z,4.85
2023-05-05T11:13:03.294Z,5.72
2023-05-05T11:15:30.555Z,5.82
2023-05-05T11:17:59.304Z,4.43
2023-05-05T11:20:42.226Z,3.92
2023-05-05T11:23:09.266Z,3.65
2023-05-05T11:25:42.244Z,4.28
2023-05-05T11:28:14.007Z,4.00
2023-05-05T11:30:57.484Z,4.28
2023-05-05T11:33:28.675Z,4.70
2023-05-05T11:36:09.569Z,4.00
2023-05-05T11:38:39.559Z,4.15
2023-05-05T11:41:21.355Z,4.43
2023-05-05T11:43:48.439Z,4.40
2023-05-05T11:46:17.098Z,4.32
2023-05-05T11:48:48.576Z,5.00
2023-05-05T11:51:17.478Z,4.82
2023-05-05T11:53:46.807Z,4.75
2023-05-05T11:56:19.418Z,5.43
2023-05-05T11:59:08.055Z,5.30
2023-05-05T12:01:35.877Z,5.40
2023-05-05T12:04:03.610Z,4.72
2023-05-05T12:06:33.939Z,4.95
2023-05-05T12:09:01.479Z,5.47
2023-05-05T12:11:28.649Z,5.50
2023-05-05T12:14:11.787Z,5.97
2023-05-05T12:16:40.008Z,6.78
2023-05-05T12:19:08.789Z,5.45
2023-05-05T12:21:36.388Z,5.32
2023-05-05T12:24:03.525Z,5.30
2023-05-05T12:26:32.043Z,4.70
2023-05-05T12:29:00.596Z,4.70
2023-05-05T12:31:42.133Z,4.47
2023-05-05T12:34:10.602Z,4.43
2023-05-05T12:36:38.316Z,5.13
2023-05-05T12:39:05.650Z,4.70
2023-05-05T12:41:33.478Z,5.03
2023-05-05T12:44:03.183Z,4.82
2023-05-05T12:46:31.332Z,4.95
2023-05-05T12:49:05.061Z,5.32
2023-05-05T12:51:33.523Z,6.20
2023-05-05T12:54:11.228Z,6.90
2023-05-05T12:56:44.323Z,6.57
2023-05-05T12:59:29.269Z,6.50
2023-05-05T13:01:58.753Z,6.22
2023-05-05T13:04:29.818Z,6.22
2023-05-05T13:07:13.722Z,5.43
2023-05-05T13:09:40.896Z,5.63
2023-05-05T13:12:11.232Z,6.38
2023-05-05T13:14:39.144Z,5.90
2023-05-05T13:17:06.270Z,5.70
2023-05-05T13:19:35.669Z,6.32
2023-05-05T13:22:02.800Z,6.70
2023-05-05T13:24:46.459Z,6.43
2023-05-05T13:27:17.218Z,6.07
2023-05-05T13:29:44.421Z,6.13
2023-05-05T13:32:11.643Z,6.30
2023-05-05T13:34:39.544Z,7.00
2023-05-05T13:37:06.835Z,5.57
2023-05-05T13:39:33.979Z,6.07
2023-05-05T13:42:01.059Z,5.00
2023-05-05T13:44:28.580Z,5.38
2023-05-05T13:46:55.716Z,4.72
2023-05-05T13:49:22.857Z,5.20
2023-05-05T13:51:49.967Z,4.72
2023-05-05T13:54:17.067Z,4.45
2023-05-05T13:56:44.252Z,5.68
2023-05-05T13:59:11.327Z,5.68
2023-05-05T14:01:38.547Z,5.50
2023-05-05T14:04:06.317Z,4.80
2023-05-05T14:06:33.999Z,5.13
2023-05-05T14:09:01.533Z,5.13
2023-05-05T14:11:28.681Z,4.90
2023-05-05T14:13:55.824Z,5.15
2023-05-05T14:16:22.976Z,5.38
2023-05-05T14:18:50.096Z,5.20
2023-05-05T14:21:17.216Z,5.05
2023-05-05T14:23:44.365Z,5.10
2023-05-05T14:26:11.569Z,4.65
2023-05-05T14:28:38.700Z,4.60
2023-05-05T14:31:06.164Z,4.82
2023-05-05T14:33:33.262Z,5.20
2023-05-05T14:36:00.389Z,5.28
2023-05-05T14:38:27.837Z,5.43
2023-05-05T14:40:55.013Z,5.78
2023-05-05T14:43:22.277Z,5.00
2023-05-05T14:45:49.470Z,5.05
2023-05-05T14:48:16.840Z,4.85
2023-05-05T14:50:46.439Z,4.25
2023-05-05T14:53:13.731Z,4.50
2023-05-05T14:55:40.926Z,4.13
2023-05-05T14:58:07.992Z,4.10
2023-05-05T15:00:35.045Z,4.15
2023-05-05T15:03:02.420Z,4.63
2023-05-05T15:05:29.598Z,4.30
2023-05-05T15:07:56.841Z,4.10
2023-05-05T15:10:24.059Z,3.80
2023-05-05T15:12:51.453Z,4.18
2023-05-05T15:15:18.734Z,4.63
2023-05-05T15:17:45.950Z,4.40
2023-05-05T15:20:13.145Z,3.75
2023-05-05T15:22:40.322Z,3.85
2023-05-05T15:25:12.360Z,4.85
2023-05-05T15:27:40.182Z,4.47
2023-05-05T15:30:08.188Z,4.40
2023-05-05T15:32:35.339Z,4.47
2023-05-05T15:35:02.585Z,3.80
2023-05-05T15:37:29.734Z,4.15
2023-05-05T15:39:57.134Z,4.07
2023-05-05T15:42:24.383Z,4.25
2023-05-05T15:44:51.945Z,5.63
2023-05-05T15:47:19.052Z,6.10
2023-05-05T15:49:46.472Z,6.18
2023-05-05T15:52:14.161Z,5.55
2023-05-05T15:54:41.628Z,4.13
2023-05-05T15:57:08.786Z,3.70
2023-05-05T15:59:36.144Z,4.68
2023-05-05T16:02:03.353Z,3.72
2023-05-05T16:04:30.786Z,3.60
2023-05-05T16:06:58.377Z,3.15
2023-05-05T16:09:25.581Z,2.63
2023-05-05T16:11:54.600Z,2.83
2023-05-05T16:14:21.834Z,2.35
2023-05-05T16:16:49.306Z,2.38
2023-05-05T16:19:16.803Z,2.00
2023-05-05T16:21:44.129Z,2.10
2023-05-05T16:24:16.110Z,2.22
2023-05-05T16:26:46.543Z,2.05
2023-05-05T16:29:13.673Z,2.10
2023-05-05T16:31:41.030Z,2.20
2023-05-05T16:34:08.247Z,2.38
2023-05-05T16:36:35.413Z,2.63
2023-05-05T16:39:02.742Z,2.95
2023-05-05T16:41:30.081Z,2.78
2023-05-05T16:43:57.437Z,3.10
2023-05-05T16:46:24.569Z,2.67
2023-05-05T16:48:51.720Z,3.00
2023-05-05T16:51:18.832Z,2.80
2023-05-05T16:53:47.578Z,2.65
2023-05-05T16:56:15.979Z,2.70
2023-05-05T16:58:43.136Z,2.55
2023-05-05T17:01:10.260Z,2.67
2023-05-05T17:03:38.325Z,2.95
2023-05-05T17:06:06.089Z,2.90
2023-05-05T17:08:33.180Z,2.90
2023-05-05T17:11:00.255Z,3.13
2023-05-05T17:13:30.378Z,2.90
2023-05-05T17:15:57.999Z,2.88
2023-05-05T17:18:26.076Z,3.13
2023-05-05T17:20:53.313Z,2.72
2023-05-05T17:23:21.521Z,3.30
2023-05-05T17:25:48.593Z,2.92
2023-05-05T17:28:17.380Z,2.72
2023-05-05T17:30:48.439Z,2.58
2023-05-05T17:33:18.493Z,2.30
2023-05-05T17:35:45.719Z,2.30
2023-05-05T17:38:12.932Z,2.60
2023-05-05T17:40:39.992Z,2.88
2023-05-05T17:43:07.646Z,2.65
2023-05-05T17:45:34.864Z,2.92
2023-05-05T17:48:01.972Z,2.53
2023-05-05T17:50:29.066Z,2.22
2023-05-05T17:52:57.004Z,2.30
2023-05-05T17:55:24.098Z,2.50
2023-05-05T17:57:51.227Z,2.58
2023-05-05T18:00:18.914Z,2.40
2023-05-05T18:02:46.199Z,2.92
2023-05-05T18:05:13.995Z,2.40
2023-05-05T18:07:41.112Z,2.42
2023-05-05T18:10:10.698Z,2.53
2023-05-05T18:12:37.877Z,2.88
2023-05-05T18:15:06.022Z,3.03
2023-05-05T18:17:33.127Z,2.70
2023-05-05T18:20:00.252Z,2.80
2023-05-05T18:22:30.388Z,2.90
2023-05-05T18:25:00.331Z,3.10
2023-05-05T18:27:28.869Z,3.40
2023-05-05T18:29:55.958Z,3.75
2023-05-05T18:32:23.994Z,4.00
2023-05-05T18:34:51.096Z,4.10
2023-05-05T18:37:18.208Z,4.35
2023-05-05T18:39:45.404Z,4.20
2023-05-05T18:42:13.174Z,4.10
2023-05-05T18:44:40.408Z,4.15
2023-05-05T18:47:08.081Z,4.10
2023-05-05T18:49:35.451Z,4.57
2023-05-05T18:52:02.556Z,4.43
2023-05-05T18:54:29.637Z,4.50
2023-05-05T18:56:56.810Z,4.47
2023-05-05T18:59:24.903Z,5.00
2023-05-05T19:01:52.080Z,4.78
2023-05-05T19:04:30.190Z,5.07
2023-05-05T19:06:59.156Z,5.30
2023-05-05T19:09:26.544Z,5.43
2023-05-05T19:11:53.659Z,5.25
2023-05-05T19:14:21.104Z,5.82
2023-05-05T19:16:48.263Z,5.43
2023-05-05T19:19:15.464Z,5.55
2023-05-05T19:21:42.616Z,5.50
2023-05-05T19:24:10.162Z,5.90
2023-05-05T19:26:37.334Z,5.10
2023-05-05T19:29:04.453Z,5.80
2023-05-05T19:31:31.991Z,6.40
2023-05-05T19:34:03.608Z,6.07
2023-05-05T19:39:03.205Z,5.45
2023-05-05T19:41:31.245Z,5.88
2023-05-05T19:43:58.532Z,5.88
2023-05-05T19:46:28.738Z,5.97
2023-05-05T19:48:55.982Z,5.30
2023-05-05T19:51:23.178Z,5.70
2023-05-05T19:53:50.898Z,6.55
2023-05-05T19:56:18.049Z,5.53
2023-05-05T19:59:06.448Z,6.10
2023-05-05T20:01:35.904Z,5.50
2023-05-05T20:04:06.156Z,5.13
2023-05-05T20:06:33.757Z,5.07
2023-05-05T20:09:01.113Z,5.20
2023-05-05T20:11:28.868Z,5.22
2023-05-05T20:13:56.828Z,5.50
2023-05-05T20:16:24.255Z,5.40
2023-05-05T20:18:51.714Z,5.38
2023-05-05T20:21:18.913Z,5.55
2023-05-05T20:23:46.763Z,5.80
2023-05-05T20:26:13.980Z,5.47
2023-05-05T20:28:44.849Z,5.50
2023-05-05T20:31:14.617Z,5.65
2023-05-05T20:33:41.786Z,5.63
2023-05-05T20:36:09.077Z,5.22
2023-05-05T20:38:36.245Z,5.30
2023-05-05T20:41:03.722Z,5.68
2023-05-05T20:43:30.777Z,5.65
2023-05-05T20:45:57.969Z,5.18
2023-05-05T20:48:25.043Z,5.70
2023-05-05T20:50:52.347Z,5.50
2023-05-05T20:53:21.029Z,5.40
2023-05-05T20:55:49.921Z,5.07
2023-05-05T20:58:17.000Z,4.75
2023-05-05T21:00:44.315Z,4.93
2023-05-05T21:03:11.817Z,5.13
2023-05-05T21:05:41.092Z,4.63
2023-05-05T21:08:08.839Z,4.80
2023-05-05T21:10:36.852Z,4.90
2023-05-05T21:13:04.389Z,4.72
2023-05-05T21:15:32.108Z,4.80
2023-05-05T21:17:59.301Z,5.20
2023-05-05T21:20:26.973Z,4.97
2023-05-05T21:22:54.093Z,5.30
2023-05-05T21:25:22.074Z,5.63
2023-05-05T21:27:49.507Z,5.28
2023-05-05T21:30:17.499Z,5.28
2023-05-05T21:32:44.947Z,6.03
2023-05-05T21:35:12.184Z,5.25
2023-05-05T21:37:39.668Z,4.88
2023-05-05T21:40:14.041Z,4.45
2023-05-05T21:42:42.632Z,4.90
2023-05-05T21:45:11.296Z,4.50
2023-05-05T21:47:38.494Z,4.95
2023-05-05T21:50:06.384Z,4.13
2023-05-05T21:52:33.769Z,4.70
2023-05-05T21:55:00.954Z,4.22
2023-05-05T21:57:28.450Z,4.57
2023-05-05T21:59:55.771Z,3.95
2023-05-05T22:24:28.573Z,4.80
2023-05-05T22:26:57.712Z,4.80
2023-05-05T22:29:25.668Z,4.63
2023-05-05T22:31:52.982Z,4.30
2023-05-05T22:34:22.073Z,4.78
2023-05-05T22:36:49.522Z,4.35
2023-05-05T22:39:18.692Z,4.82
2023-05-05T22:41:45.881Z,5.25
2023-05-05T22:44:13.049Z,6.03
2023-05-05T22:46:40.256Z,5.00
2023-05-05T22:49:07.539Z,5.05
2023-05-05T22:51:34.803Z,5.00
2023-05-05T22:54:02.029Z,4.82
2023-05-05T22:56:29.112Z,5.65
2023-05-05T22:58:57.055Z,5.70
2023-05-05T23:01:24.358Z,5.70
2023-05-05T23:03:51.477Z,6.32
2023-05-05T23:06:18.566Z,6.47
2023-05-05T23:08:46.338Z,6.22
2023-05-05T23:11:13.406Z,6.38
2023-05-05T23:13:40.860Z,7.38
2023-05-05T23:16:08.239Z,6.43
2023-05-05T23:18:36.640Z,6.43
2023-05-05T23:21:03.778Z,6.55
2023-05-05T23:23:31.374Z,7.20
2023-05-05T23:25:58.601Z,7.18
2023-05-05T23:28:25.778Z,7.50
2023-05-05T23:30:53.065Z,7.45
2023-05-05T23:33:20.307Z,7.18
2023-05-05T23:35:47.609Z,7.75
2023-05-05T23:38:14.710Z,8.10
2023-05-05T23:40:41.844Z,8.48
2023-05-05T23:43:08.973Z,8.68
2023-05-05T23:45:36.077Z,8.00
2023-05-05T23:48:03.336Z,8.70
2023-05-05T23:50:30.514Z,8.15
2023-05-05T23:52:58.030Z,8.35
2023-05-05T23:55:25.461Z,9.05
2023-05-05T23:57:53.300Z,9.25
